createdAt,value
2022-08-10T00:01:55.621Z,77.70
2022-08-10T00:04:25.880Z,77.46
2022-08-10T00:06:56.446Z,77.77
2022-08-10T00:09:26.365Z,77.34
2022-08-10T00:11:55.599Z,77.20
2022-08-10T00:14:24.845Z,77.76
2022-08-10T00:16:55.046Z,77.52
2022-08-10T00:19:24.076Z,77.98
2022-08-10T00:21:53.228Z,77.66
2022-08-10T00:24:22.263Z,78.34
2022-08-10T00:28:01.473Z,77.85
2022-08-10T00:29:40.447Z,78.73
2022-08-10T00:32:10.956Z,78.18
2022-08-10T00:34:40.045Z,78.36
2022-08-10T00:37:09.288Z,77.52
2022-08-10T00:39:39.415Z,77.73
2022-08-10T00:42:10.313Z,77.90
2022-08-10T00:44:42.020Z,78.06
2022-08-10T00:47:22.570Z,78.41
2022-08-10T00:50:02.972Z,77.65
2022-08-10T00:52:33.410Z,79.09
2022-08-10T00:55:04.351Z,78.28
2022-08-10T00:57:35.248Z,76.87
2022-08-10T01:00:05.438Z,76.07
2022-08-10T01:02:36.379Z,77.91
2022-08-10T01:05:08.916Z,78.96
2022-08-10T01:08:16.596Z,77.63
2022-08-10T01:10:54.571Z,77.64
2022-08-10T01:13:32.527Z,77.84
2022-08-10T01:16:06.631Z,78.02
2022-08-10T01:18:44.097Z,78.54
2022-08-10T01:21:41.861Z,77.38
2022-08-10T01:24:47.060Z,77.55
2022-08-10T01:27:31.340Z,76.39
2022-08-10T01:30:05.542Z,77.74
2022-08-10T01:32:50.330Z,76.75
2022-08-10T01:35:27.853Z,77.33
2022-08-10T01:38:04.715Z,77.18
2022-08-10T01:40:38.094Z,76.52
2022-08-10T01:43:11.184Z,77.09
2022-08-10T01:45:46.595Z,76.28
2022-08-10T01:48:32.023Z,78.23
2022-08-10T01:51:14.712Z,76.88
2022-08-10T01:53:52.142Z,76.98
2022-08-10T01:56:24.599Z,77.59
2022-08-10T01:58:57.654Z,78.25
2022-08-10T02:01:39.030Z,77.54
2022-08-10T02:04:11.113Z,77.28
2022-08-10T02:06:44.600Z,77.18
2022-08-10T02:09:16.619Z,76.99
2022-08-10T02:11:57.529Z,77.03
2022-08-10T02:14:49.310Z,76.67
2022-08-10T02:17:59.126Z,76.35
2022-08-10T02:20:18.337Z,76.28
2022-08-10T02:22:52.019Z,76.89
2022-08-10T02:25:41.909Z,77.53
2022-08-10T02:28:27.092Z,75.90
2022-08-10T02:30:58.964Z,77.05
2022-08-10T02:33:30.915Z,75.70
2022-08-10T02:36:03.184Z,78.41
2022-08-10T02:38:58.325Z,77.82
2022-08-10T02:45:03.022Z,77.67
2022-08-10T02:45:20.719Z,76.74
2022-08-10T02:47:26.872Z,77.69
2022-08-10T02:50:04.806Z,77.26
2022-08-10T02:52:40.004Z,77.21
2022-08-10T02:55:27.129Z,77.49
2022-08-10T02:58:16.676Z,76.67
2022-08-10T03:00:50.825Z,78.55
2022-08-10T03:03:22.468Z,78.17
2022-08-10T03:05:56.771Z,78.49
2022-08-10T03:08:29.624Z,79.20
2022-08-10T03:16:12.787Z,77.40
2022-08-10T03:18:42.543Z,77.92
2022-08-10T03:21:16.343Z,77.14
2022-08-10T03:23:46.811Z,76.50
2022-08-10T03:26:20.567Z,77.52
2022-08-10T03:28:50.761Z,77.57
2022-08-10T03:31:20.862Z,77.00
2022-08-10T03:33:51.236Z,76.93
2022-08-10T03:36:40.037Z,76.39
2022-08-10T03:39:11.969Z,77.03
2022-08-10T03:41:53.428Z,76.27
2022-08-10T03:44:26.577Z,75.55
2022-08-10T03:46:56.924Z,76.34
2022-08-10T03:49:28.765Z,76.69
2022-08-10T03:51:59.959Z,76.72
2022-08-10T03:54:29.780Z,76.73
2022-08-10T03:56:58.856Z,76.66
2022-08-10T03:59:28.183Z,77.77
2022-08-10T04:02:45.529Z,77.46
2022-08-10T04:04:47.299Z,76.88
2022-08-10T04:07:18.266Z,77.80
2022-08-10T04:09:54.118Z,77.38
2022-08-10T04:12:25.455Z,76.69
2022-08-10T04:14:54.523Z,75.83
2022-08-10T04:17:59.475Z,76.32
2022-08-10T04:20:20.375Z,77.19
2022-08-10T04:22:54.618Z,77.45
2022-08-10T04:25:26.122Z,79.23
2022-08-10T04:27:56.403Z,78.03
2022-08-10T04:30:27.917Z,77.76
2022-08-10T04:32:59.887Z,78.41
2022-08-10T04:35:31.122Z,78.65
2022-08-10T04:38:03.867Z,78.06
2022-08-10T04:40:33.149Z,78.17
2022-08-10T04:43:11.285Z,77.16
2022-08-10T04:45:49.519Z,76.54
2022-08-10T04:48:40.839Z,76.24
2022-08-10T04:51:17.367Z,77.69
2022-08-10T04:54:03.747Z,77.36
2022-08-10T04:56:37.795Z,77.47
2022-08-10T04:59:07.795Z,77.06
2022-08-10T05:02:22.909Z,76.66
2022-08-10T05:04:35.981Z,77.72
2022-08-10T05:07:16.240Z,77.60
2022-08-10T05:10:03.044Z,77.96
2022-08-10T05:12:37.819Z,77.33
2022-08-10T05:15:12.658Z,76.82
2022-08-10T05:18:04.528Z,76.11
2022-08-10T05:20:33.115Z,76.27
2022-08-10T05:23:02.380Z,76.16
2022-08-10T05:25:37.282Z,75.17
2022-08-10T05:28:07.517Z,76.01
2022-08-10T05:30:36.463Z,75.22
2022-08-10T05:33:08.844Z,74.77
2022-08-10T05:35:56.689Z,73.77
2022-08-10T05:38:28.779Z,73.61
2022-08-10T05:40:59.765Z,74.07
2022-08-10T05:43:29.221Z,74.02
2022-08-10T05:46:19.687Z,73.02
2022-08-10T05:48:56.594Z,72.06
2022-08-10T05:51:30.743Z,70.90
2022-08-10T05:54:04.450Z,69.80
2022-08-10T05:56:55.752Z,69.47
2022-08-10T06:00:10.923Z,69.46
2022-08-10T06:02:31.785Z,68.75
2022-08-10T06:05:13.105Z,67.82
2022-08-10T06:07:54.069Z,68.37
2022-08-10T06:10:32.081Z,67.34
2022-08-10T06:13:26.952Z,67.04
2022-08-10T06:16:04.692Z,66.91
2022-08-10T06:18:34.815Z,65.59
2022-08-10T06:21:04.729Z,66.49
2022-08-10T06:23:34.753Z,66.24
2022-08-10T06:26:08.728Z,64.85
2022-08-10T06:29:02.129Z,65.27
2022-08-10T06:31:48.820Z,66.05
2022-08-10T06:34:25.599Z,65.06
2022-08-10T06:36:58.651Z,65.99
2022-08-10T06:39:36.348Z,62.46
2022-08-10T06:42:16.110Z,61.01
2022-08-10T06:44:54.218Z,60.64
2022-08-10T06:47:30.123Z,61.11
2022-08-10T06:50:04.917Z,61.02
2022-08-10T06:52:39.492Z,61.66
2022-08-10T06:55:16.862Z,59.93
2022-08-10T06:57:59.677Z,61.42
2022-08-10T07:00:34.477Z,57.67
2022-08-10T07:03:10.609Z,58.00
2022-08-10T07:05:46.831Z,56.72
2022-08-10T07:08:21.767Z,56.50
2022-08-10T07:10:52.545Z,56.57
2022-08-10T07:14:14.131Z,56.58
2022-08-10T07:16:15.019Z,55.95
2022-08-10T07:18:46.204Z,53.24
2022-08-10T07:21:16.438Z,53.32
2022-08-10T07:23:57.240Z,53.08
2022-08-10T07:26:31.527Z,51.35
2022-08-10T07:29:01.723Z,51.34
2022-08-10T07:31:56.041Z,50.91
2022-08-10T07:34:29.422Z,51.28
2022-08-10T07:37:03.673Z,49.89
2022-08-10T07:40:03.679Z,49.08
2022-08-10T07:42:31.275Z,48.36
2022-08-10T07:45:00.710Z,48.62
2022-08-10T07:47:52.990Z,48.02
2022-08-10T07:50:25.534Z,48.35
2022-08-10T07:52:58.207Z,48.14
2022-08-10T07:56:01.688Z,48.91
2022-08-10T07:58:19.928Z,47.73
2022-08-10T08:00:51.660Z,48.05
2022-08-10T08:03:26.886Z,46.97
2022-08-10T08:06:05.615Z,46.19
2022-08-10T08:08:45.817Z,47.76
2022-08-10T08:11:25.477Z,47.29
2022-08-10T08:13:56.894Z,49.34
2022-08-10T08:16:27.120Z,47.51
2022-08-10T08:24:07.519Z,48.68
2022-08-10T08:24:41.047Z,49.61
2022-08-10T08:27:12.159Z,49.28
2022-08-10T08:29:44.272Z,51.05
2022-08-10T08:32:14.337Z,49.30
2022-08-10T08:34:46.413Z,47.42
2022-08-10T08:38:29.875Z,46.12
2022-08-10T08:40:14.557Z,48.10
2022-08-10T08:43:15.551Z,47.82
2022-08-10T08:46:06.675Z,45.81
2022-08-10T08:48:58.084Z,45.19
2022-08-10T08:52:07.273Z,46.17
2022-08-10T08:54:38.147Z,46.73
2022-08-10T08:57:49.560Z,48.04
2022-08-10T09:00:19.390Z,47.89
2022-08-10T09:03:22.926Z,48.32
2022-08-10T09:06:05.643Z,47.24
2022-08-10T09:09:02.546Z,46.75
2022-08-10T09:11:42.492Z,46.72
2022-08-10T09:14:25.821Z,45.61
2022-08-10T09:17:04.749Z,46.21
2022-08-10T09:19:39.957Z,46.79
2022-08-10T09:22:19.338Z,47.24
2022-08-10T09:24:55.394Z,47.90
2022-08-10T09:27:27.750Z,48.16
2022-08-10T09:30:01.689Z,48.08
2022-08-10T09:36:14.339Z,49.21
2022-08-10T09:36:22.449Z,48.23
2022-08-10T09:38:42.878Z,48.15
2022-08-10T09:41:24.154Z,47.68
2022-08-10T09:44:05.138Z,47.26
2022-08-10T09:46:51.970Z,47.35
2022-08-10T09:49:53.209Z,47.10
2022-08-10T09:52:30.049Z,46.25
2022-08-10T09:55:12.683Z,47.10
2022-08-10T09:57:58.917Z,47.58
2022-08-10T10:00:37.230Z,47.11
2022-08-10T10:03:20.564Z,45.85
2022-08-10T10:06:03.817Z,44.73
2022-08-10T10:08:43.185Z,44.39
2022-08-10T10:11:19.048Z,45.67
2022-08-10T10:14:03.134Z,46.22
2022-08-10T10:17:03.084Z,43.53
2022-08-10T10:19:51.616Z,42.09
2022-08-10T10:22:45.034Z,41.57
2022-08-10T10:25:22.979Z,35.36
2022-08-10T10:28:06.942Z,38.21
2022-08-10T10:30:47.195Z,39.60
2022-08-10T10:33:25.339Z,40.65
2022-08-10T10:35:55.652Z,41.65
2022-08-10T10:38:31.051Z,42.04
2022-08-10T10:41:11.722Z,41.12
2022-08-10T10:43:54.944Z,42.44
2022-08-10T10:46:40.678Z,42.39
2022-08-10T10:49:20.740Z,42.86
2022-08-10T10:52:02.194Z,40.38
2022-08-10T10:54:42.684Z,39.65
2022-08-10T10:57:18.655Z,37.55
2022-08-10T10:59:57.883Z,33.61
2022-08-10T11:02:45.026Z,27.89
2022-08-10T11:05:27.262Z,28.54
2022-08-10T11:08:01.505Z,27.13
2022-08-10T11:10:37.448Z,24.93
2022-08-10T11:14:28.535Z,25.53
2022-08-10T11:16:24.054Z,22.39
2022-08-10T11:19:04.206Z,22.35
2022-08-10T11:21:44.410Z,25.13
2022-08-10T11:24:44.404Z,27.08
2022-08-10T11:27:22.097Z,29.84
2022-08-10T11:30:03.219Z,28.98
2022-08-10T11:32:47.538Z,29.67
2022-08-10T11:35:31.588Z,27.38
2022-08-10T11:38:31.507Z,21.55
2022-08-10T11:42:07.189Z,20.69
2022-08-10T11:44:10.319Z,18.29
2022-08-10T11:46:47.047Z,23.65
2022-08-10T11:49:28.360Z,29.40
2022-08-10T11:52:04.525Z,27.05
2022-08-10T11:54:43.210Z,25.95
2022-08-10T11:57:13.684Z,26.59
2022-08-10T11:59:58.155Z,24.44
2022-08-10T12:02:33.033Z,30.04
2022-08-10T12:05:07.491Z,23.57
2022-08-10T12:10:06.816Z,22.00
2022-08-10T12:10:37.454Z,19.01
2022-08-10T12:13:13.888Z,21.71
2022-08-10T12:15:52.269Z,18.96
2022-08-10T12:18:25.380Z,19.00
2022-08-10T12:21:00.013Z,18.03
2022-08-10T12:23:39.489Z,18.58
2022-08-10T12:26:14.602Z,18.46
2022-08-10T12:28:52.472Z,18.60
2022-08-10T12:31:28.307Z,20.04
2022-08-10T12:34:09.896Z,17.69
2022-08-10T12:36:43.150Z,19.61
2022-08-10T12:39:18.484Z,18.15
2022-08-10T12:41:54.233Z,18.80
2022-08-10T12:44:41.809Z,18.93
2022-08-10T12:47:23.233Z,18.56
2022-08-10T12:50:29.301Z,18.38
2022-08-10T12:52:57.979Z,19.13
2022-08-10T12:55:31.267Z,16.71
2022-08-10T12:58:01.885Z,18.91
2022-08-10T13:00:59.602Z,19.10
2022-08-10T13:04:23.645Z,18.94
2022-08-10T13:06:23.385Z,14.82
2022-08-10T13:09:10.587Z,15.89
2022-08-10T13:12:34.922Z,19.52
2022-08-10T13:14:42.879Z,17.78
2022-08-10T13:17:14.421Z,16.37
2022-08-10T13:19:55.660Z,17.01
2022-08-10T13:22:30.441Z,18.07
2022-08-10T13:25:04.238Z,18.79
2022-08-10T13:28:01.331Z,17.69
2022-08-10T13:30:37.201Z,19.05
2022-08-10T13:33:10.698Z,17.28
2022-08-10T13:35:41.411Z,17.64
2022-08-10T13:38:11.544Z,17.27
2022-08-10T13:40:42.136Z,17.63
2022-08-10T13:43:14.797Z,18.86
2022-08-10T13:45:50.051Z,18.81
2022-08-10T13:48:22.718Z,17.79
2022-08-10T13:50:54.014Z,18.28
2022-08-10T13:53:28.858Z,17.85
2022-08-10T13:55:59.240Z,19.36
2022-08-10T13:58:32.943Z,17.07
2022-08-10T14:01:10.090Z,19.61
2022-08-10T14:03:42.380Z,20.22
2022-08-10T14:06:15.384Z,20.32
2022-08-10T14:08:50.446Z,20.76
2022-08-10T14:11:21.652Z,21.85
2022-08-10T14:13:57.475Z,22.06
2022-08-10T14:16:27.788Z,20.79
2022-08-10T14:18:59.553Z,19.73
2022-08-10T14:21:29.855Z,20.63
2022-08-10T14:23:59.561Z,18.75
2022-08-10T14:26:32.139Z,21.03
2022-08-10T14:29:09.376Z,22.58
2022-08-10T14:32:00.374Z,23.80
2022-08-10T14:36:16.159Z,23.38
2022-08-10T14:37:38.181Z,23.30
2022-08-10T14:40:13.283Z,22.76
2022-08-10T14:42:48.320Z,22.19
2022-08-10T14:45:25.388Z,22.48
2022-08-10T14:48:01.142Z,24.30
2022-08-10T14:50:34.503Z,21.78
2022-08-10T14:53:16.148Z,24.26
2022-08-10T14:55:58.895Z,24.49
2022-08-10T14:58:34.195Z,22.34
2022-08-10T15:01:06.798Z,22.91
2022-08-10T15:04:02.147Z,23.27
2022-08-10T15:06:32.479Z,25.04
2022-08-10T15:09:12.534Z,26.25
2022-08-10T15:12:13.858Z,27.50
2022-08-10T15:14:45.821Z,27.81
2022-08-10T15:17:26.283Z,27.78
2022-08-10T15:20:02.381Z,25.05
2022-08-10T15:22:40.493Z,25.43
2022-08-10T15:25:18.957Z,27.44
2022-08-10T15:27:53.468Z,27.67
2022-08-10T15:30:31.580Z,27.90
2022-08-10T15:33:57.399Z,29.60
2022-08-10T15:36:35.835Z,29.66
2022-08-10T15:39:17.225Z,30.84
2022-08-10T15:42:01.825Z,31.81
2022-08-10T15:44:40.230Z,30.56
2022-08-10T15:47:15.093Z,32.66
2022-08-10T15:49:54.365Z,32.24
2022-08-10T15:52:39.797Z,32.75
2022-08-10T15:55:42.492Z,34.09
2022-08-10T15:58:19.089Z,32.96
2022-08-10T16:00:56.423Z,32.03
2022-08-10T16:03:35.913Z,32.83
2022-08-10T16:06:07.689Z,36.59
2022-08-10T16:08:56.753Z,37.22
2022-08-10T16:11:38.775Z,39.96
2022-08-10T16:14:17.402Z,39.23
2022-08-10T16:16:51.345Z,40.12
2022-08-10T16:19:23.830Z,40.06
2022-08-10T16:22:04.526Z,39.92
2022-08-10T16:24:56.075Z,40.86
2022-08-10T16:27:28.697Z,42.54
2022-08-10T16:30:00.799Z,42.39
2022-08-10T16:32:35.429Z,44.76
2022-08-10T16:35:08.853Z,44.71
2022-08-10T16:37:58.736Z,44.50
2022-08-10T16:40:30.392Z,45.82
2022-08-10T16:43:02.419Z,46.49
2022-08-10T16:45:36.144Z,45.57
2022-08-10T16:48:08.939Z,48.29
2022-08-10T16:50:41.931Z,47.45
2022-08-10T16:53:17.102Z,48.74
2022-08-10T16:55:50.854Z,48.24
2022-08-10T16:58:25.155Z,47.55
2022-08-10T17:00:58.799Z,49.46
2022-08-10T17:04:08.196Z,49.41
2022-08-10T17:06:24.494Z,50.00
2022-08-10T17:08:58.096Z,52.42
2022-08-10T17:11:32.213Z,51.60
2022-08-10T17:14:03.869Z,52.02
2022-08-10T17:16:37.483Z,52.80
2022-08-10T17:19:13.137Z,53.67
2022-08-10T17:21:51.049Z,53.28
2022-08-10T17:24:28.178Z,53.44
2022-08-10T17:27:01.425Z,54.48
2022-08-10T17:30:02.811Z,55.19
2022-08-10T17:32:44.248Z,55.94
2022-08-10T17:35:23.142Z,57.94
2022-08-10T17:37:57.646Z,59.07
2022-08-10T17:40:31.262Z,59.79
2022-08-10T17:43:02.854Z,61.41
2022-08-10T17:45:47.723Z,61.24
2022-08-10T17:48:19.876Z,60.94
2022-08-10T17:50:52.400Z,61.88
2022-08-10T17:53:29.852Z,61.94
2022-08-10T17:56:01.345Z,62.57
2022-08-10T17:58:31.716Z,62.62
2022-08-10T18:01:41.263Z,62.57
2022-08-10T18:03:55.518Z,62.13
2022-08-10T18:06:26.816Z,62.59
2022-08-10T18:09:02.050Z,62.64
2022-08-10T18:11:35.096Z,63.01
2022-08-10T18:14:07.471Z,62.92
2022-08-10T18:16:41.833Z,63.92
2022-08-10T18:19:15.901Z,64.49
2022-08-10T18:21:48.796Z,65.61
2022-08-10T18:24:20.093Z,65.50
2022-08-10T18:26:52.762Z,65.64
2022-08-10T18:29:27.197Z,66.22
2022-08-10T18:32:00.065Z,66.48
2022-08-10T18:34:32.016Z,67.14
2022-08-10T18:37:03.983Z,66.43
2022-08-10T18:39:36.341Z,67.39
2022-08-10T18:42:13.131Z,67.24
2022-08-10T18:44:45.846Z,66.44
2022-08-10T18:47:17.771Z,66.95
2022-08-10T18:50:00.028Z,67.26
2022-08-10T18:52:34.890Z,67.92
2022-08-10T18:55:23.231Z,67.51
2022-08-10T18:58:14.263Z,67.41
2022-08-10T19:01:01.016Z,68.66
2022-08-10T19:03:54.782Z,67.62
2022-08-10T19:06:53.264Z,67.61
2022-08-10T19:09:46.712Z,68.44
2022-08-10T19:12:33.371Z,67.87
2022-08-10T19:15:19.196Z,68.51
2022-08-10T19:18:07.537Z,68.67
2022-08-10T19:20:45.189Z,69.36
2022-08-10T19:23:34.821Z,68.78
2022-08-10T19:26:44.054Z,68.28
2022-08-10T19:30:00.856Z,69.13
2022-08-10T19:32:26.139Z,68.44
2022-08-10T19:35:08.927Z,69.31
2022-08-10T19:38:00.644Z,69.58
2022-08-10T19:40:44.537Z,69.81
2022-08-10T19:43:59.246Z,69.21
2022-08-10T19:46:28.386Z,69.67
2022-08-10T19:49:04.925Z,69.66
2022-08-10T19:51:48.531Z,70.63
2022-08-10T19:54:26.750Z,70.09
2022-08-10T19:57:04.868Z,70.97
2022-08-10T20:00:16.477Z,70.72
2022-08-10T20:02:52.545Z,69.88
2022-08-10T20:05:32.133Z,70.00
2022-08-10T20:08:09.299Z,70.64
2022-08-10T20:10:46.640Z,70.62
2022-08-10T20:13:23.641Z,71.43
2022-08-10T20:16:00.120Z,70.88
2022-08-10T20:18:36.218Z,71.42
2022-08-10T20:21:13.642Z,70.80
2022-08-10T20:23:53.894Z,71.05
2022-08-10T20:26:28.689Z,71.17
2022-08-10T20:29:08.334Z,71.52
2022-08-10T20:31:44.489Z,71.70
2022-08-10T20:34:21.879Z,71.92
2022-08-10T20:37:05.842Z,71.91
2022-08-10T20:39:47.726Z,70.63
2022-08-10T20:42:23.207Z,72.19
2022-08-10T20:45:00.192Z,72.76
2022-08-10T20:47:53.806Z,72.91
2022-08-10T20:50:32.389Z,72.79
2022-08-10T20:53:07.658Z,72.53
2022-08-10T20:55:53.855Z,72.25
2022-08-10T20:59:00.473Z,72.91
2022-08-10T21:02:05.762Z,73.53
2022-08-10T21:04:51.610Z,72.92
2022-08-10T21:08:01.101Z,73.75
2022-08-10T21:10:42.802Z,73.83
2022-08-10T21:13:25.809Z,73.21
2022-08-10T21:16:04.629Z,73.20
2022-08-10T21:19:00.404Z,74.76
2022-08-10T21:21:59.195Z,75.13
2022-08-10T21:24:38.843Z,75.94
2022-08-10T21:27:48.531Z,74.68
2022-08-10T21:30:19.630Z,74.84
2022-08-10T21:32:59.354Z,75.81
2022-08-10T21:35:36.815Z,76.38
2022-08-10T21:38:13.862Z,77.14
2022-08-10T21:41:17.007Z,75.59
2022-08-10T21:44:08.741Z,76.07
2022-08-10T21:47:02.630Z,74.70
2022-08-10T21:50:03.960Z,74.79
2022-08-10T21:53:04.181Z,74.60
2022-08-10T21:56:02.301Z,74.09
2022-08-10T21:58:55.460Z,74.38
2022-08-10T22:01:51.440Z,73.91
2022-08-10T22:04:40.165Z,73.92
2022-08-10T22:07:36.515Z,74.54
2022-08-10T22:10:25.573Z,74.33
2022-08-10T22:13:17.462Z,74.01
2022-08-10T22:16:11.970Z,74.43
2022-08-10T22:19:04.857Z,74.10
2022-08-10T22:22:27.397Z,72.91
2022-08-10T22:25:39.691Z,72.86
2022-08-10T22:28:26.530Z,74.77
2022-08-10T22:34:45.319Z,75.27
2022-08-10T22:37:41.937Z,74.24
2022-08-10T22:40:35.735Z,76.09
2022-08-10T22:43:36.488Z,75.64
2022-08-10T22:46:32.011Z,75.49
2022-08-10T22:49:00.542Z,74.33
2022-08-10T22:51:53.757Z,74.71
2022-08-10T22:54:46.664Z,76.08
2022-08-10T22:57:34.453Z,76.62
2022-08-10T23:00:14.371Z,76.40
2022-08-10T23:02:51.655Z,75.74
2022-08-10T23:05:33.678Z,75.70
2022-08-10T23:08:30.048Z,75.39
2022-08-10T23:11:05.313Z,75.60
2022-08-10T23:13:38.296Z,76.05
2022-08-10T23:16:32.810Z,76.34
2022-08-10T23:19:11.622Z,76.14
2022-08-10T23:22:04.119Z,75.27
2022-08-10T23:24:39.110Z,76.75
2022-08-10T23:27:13.067Z,76.26
2022-08-10T23:30:09.708Z,76.67
2022-08-10T23:32:43.425Z,76.21
2022-08-10T23:36:29.877Z,75.43
2022-08-10T23:38:07.131Z,75.80
2022-08-10T23:40:38.332Z,76.20
2022-08-10T23:43:08.832Z,75.66
2022-08-10T23:45:53.652Z,76.01
2022-08-10T23:48:27.288Z,75.75
2022-08-10T23:51:00.253Z,75.93
2022-08-10T23:53:32.701Z,75.95
2022-08-10T23:56:07.959Z,75.28
2022-08-10T23:58:42.068Z,75.24
